createdAt,value
2023-05-03T00:00:44.641Z,70.55
2023-05-03T00:03:32.054Z,70.60
2023-05-03T00:06:18.431Z,70.21
2023-05-03T00:09:05.271Z,69.19
2023-05-03T00:11:51.632Z,69.73
2023-05-03T00:14:38.387Z,70.53
2023-05-03T00:17:25.043Z,70.66
2023-05-03T00:20:12.380Z,69.89
2023-05-03T00:22:58.932Z,69.59
2023-05-03T00:25:45.554Z,70.10
2023-05-03T00:28:32.165Z,70.50
2023-05-03T00:31:19.637Z,70.43
2023-05-03T00:34:05.744Z,70.88
2023-05-03T00:36:52.333Z,71.39
2023-05-03T00:39:38.475Z,70.99
2023-05-03T00:42:24.892Z,71.18
2023-05-03T00:45:11.327Z,71.26
2023-05-03T00:47:58.200Z,71.53
2023-05-03T00:50:44.922Z,71.13
2023-05-03T00:53:31.954Z,71.49
2023-05-03T00:56:21.313Z,71.37
2023-05-03T00:59:08.815Z,71.45
2023-05-03T01:01:55.195Z,70.96
2023-05-03T01:04:43.312Z,70.82
2023-05-03T01:07:48.705Z,71.72
2023-05-03T01:10:50.586Z,71.76
2023-05-03T01:14:26.014Z,71.07
2023-05-03T01:17:13.679Z,71.34
2023-05-03T01:20:14.308Z,71.74
2023-05-03T01:23:19.600Z,71.49
2023-05-03T01:26:35.773Z,71.63
2023-05-03T01:29:22.380Z,71.21
2023-05-03T01:32:15.263Z,71.35
2023-05-03T01:35:09.857Z,71.46
2023-05-03T01:40:51.520Z,71.82
2023-05-03T01:43:39.673Z,71.91
2023-05-03T01:46:27.715Z,71.72
2023-05-03T01:49:14.198Z,71.86
2023-05-03T01:52:01.339Z,71.53
2023-05-03T01:54:47.783Z,71.69
2023-05-03T01:57:35.042Z,71.62
2023-05-03T02:00:22.352Z,71.46
2023-05-03T02:03:09.419Z,71.39
2023-05-03T02:05:56.088Z,71.57
2023-05-03T02:08:42.842Z,71.63
2023-05-03T02:11:30.244Z,71.62
2023-05-03T02:14:17.357Z,71.46
2023-05-03T02:17:04.690Z,71.36
2023-05-03T02:19:54.931Z,71.45
2023-05-03T02:22:42.650Z,71.44
2023-05-03T02:25:30.233Z,71.37
2023-05-03T02:28:17.765Z,71.28
2023-05-03T02:31:06.834Z,71.35
2023-05-03T02:33:53.322Z,71.47
2023-05-03T02:36:40.533Z,71.01
2023-05-03T02:39:27.252Z,71.16
2023-05-03T02:42:14.837Z,71.42
2023-05-03T02:45:03.468Z,71.38
2023-05-03T02:47:50.689Z,71.51
2023-05-03T02:50:38.681Z,71.52
2023-05-03T02:53:25.732Z,71.40
2023-05-03T02:56:15.017Z,71.77
2023-05-03T02:59:01.888Z,71.61
2023-05-03T03:01:47.864Z,71.55
2023-05-03T03:04:35.588Z,71.54
2023-05-03T03:07:21.894Z,71.69
2023-05-03T03:10:09.119Z,71.52
2023-05-03T03:12:55.466Z,71.36
2023-05-03T03:15:48.136Z,71.43
2023-05-03T03:18:37.295Z,71.47
2023-05-03T03:21:24.063Z,71.28
2023-05-03T03:24:10.289Z,71.33
2023-05-03T03:26:56.826Z,71.29
2023-05-03T03:29:44.462Z,71.07
2023-05-03T03:32:33.036Z,71.12
2023-05-03T03:35:21.925Z,71.27
2023-05-03T03:38:08.830Z,71.31
2023-05-03T03:41:00.041Z,71.05
2023-05-03T03:43:47.564Z,71.18
2023-05-03T03:46:38.150Z,71.38
2023-05-03T03:49:25.611Z,71.13
2023-05-03T03:52:12.884Z,71.17
2023-05-03T03:55:00.202Z,71.43
2023-05-03T03:57:47.167Z,71.32
2023-05-03T04:00:34.925Z,71.47
2023-05-03T04:03:27.659Z,71.31
2023-05-03T04:06:14.324Z,71.54
2023-05-03T04:09:01.006Z,71.34
2023-05-03T04:11:48.771Z,71.99
2023-05-03T04:14:35.231Z,71.65
2023-05-03T04:17:22.557Z,71.61
2023-05-03T04:20:11.315Z,71.70
2023-05-03T04:23:00.560Z,71.81
2023-05-03T04:25:49.192Z,71.50
2023-05-03T04:28:39.023Z,71.65
2023-05-03T04:31:27.299Z,71.94
2023-05-03T04:34:16.352Z,71.80
2023-05-03T04:37:06.382Z,71.63
2023-05-03T04:39:53.896Z,72.13
2023-05-03T04:42:41.451Z,72.21
2023-05-03T04:45:28.640Z,72.07
2023-05-03T04:48:18.206Z,72.35
2023-05-03T04:51:05.303Z,72.18
2023-05-03T04:53:51.460Z,72.17
2023-05-03T04:56:40.545Z,72.03
2023-05-03T04:59:34.899Z,72.21
2023-05-03T05:02:21.770Z,71.97
2023-05-03T05:05:09.550Z,72.41
2023-05-03T05:07:56.181Z,72.23
2023-05-03T05:10:43.026Z,71.94
2023-05-03T05:13:33.002Z,71.82
2023-05-03T05:16:19.615Z,72.03
2023-05-03T05:19:12.528Z,71.78
2023-05-03T05:21:59.088Z,71.87
2023-05-03T05:24:57.288Z,71.94
2023-05-03T05:27:45.521Z,72.06
2023-05-03T05:30:33.116Z,71.66
2023-05-03T05:33:21.843Z,71.41
2023-05-03T05:36:09.986Z,71.28
2023-05-03T05:38:56.430Z,71.34
2023-05-03T05:41:43.591Z,71.22
2023-05-03T05:44:30.423Z,71.31
2023-05-03T05:47:16.747Z,70.58
2023-05-03T05:50:14.953Z,70.22
2023-05-03T05:53:09.253Z,70.27
2023-05-03T05:55:59.254Z,70.41
2023-05-03T05:58:47.362Z,70.08
2023-05-03T06:01:34.547Z,69.97
2023-05-03T06:04:21.256Z,69.03
2023-05-03T06:07:08.371Z,69.19
2023-05-03T06:09:55.647Z,69.69
2023-05-03T06:12:41.622Z,68.99
2023-05-03T06:15:33.766Z,69.41
2023-05-03T06:18:20.971Z,68.88
2023-05-03T06:21:08.171Z,68.94
2023-05-03T06:23:56.159Z,69.00
2023-05-03T06:26:43.531Z,69.00
2023-05-03T06:29:30.454Z,68.56
2023-05-03T06:32:19.305Z,67.84
2023-05-03T06:35:09.280Z,68.12
2023-05-03T06:37:59.633Z,67.74
2023-05-03T06:40:47.244Z,67.19
2023-05-03T06:43:34.959Z,67.67
2023-05-03T06:46:26.306Z,67.83
2023-05-03T06:49:12.675Z,68.29
2023-05-03T06:52:01.890Z,67.82
2023-05-03T06:54:49.457Z,67.88
2023-05-03T06:57:35.821Z,66.68
2023-05-03T07:00:23.313Z,67.63
2023-05-03T07:03:13.209Z,67.28
2023-05-03T07:06:00.903Z,66.91
2023-05-03T07:08:47.158Z,67.29
2023-05-03T07:11:37.300Z,66.99
2023-05-03T07:14:24.439Z,66.97
2023-05-03T07:17:10.966Z,67.08
2023-05-03T07:19:57.151Z,66.48
2023-05-03T07:22:43.605Z,66.23
2023-05-03T07:25:30.193Z,65.83
2023-05-03T07:28:17.224Z,65.99
2023-05-03T07:31:05.265Z,65.80
2023-05-03T07:33:54.336Z,65.46
2023-05-03T07:36:42.792Z,65.04
2023-05-03T07:39:31.887Z,63.62
2023-05-03T07:42:25.622Z,64.35
2023-05-03T07:45:16.250Z,63.68
2023-05-03T07:48:04.828Z,62.82
2023-05-03T07:50:52.269Z,62.68
2023-05-03T07:53:42.340Z,62.22
2023-05-03T07:56:30.020Z,61.24
2023-05-03T07:59:17.212Z,60.65
2023-05-03T08:02:04.378Z,60.53
2023-05-03T08:04:53.253Z,60.17
2023-05-03T08:07:42.319Z,60.16
2023-05-03T08:10:28.983Z,59.24
2023-05-03T08:13:17.592Z,59.14
2023-05-03T08:16:06.065Z,57.86
2023-05-03T08:18:53.156Z,58.49
2023-05-03T08:21:39.436Z,56.88
2023-05-03T08:24:27.312Z,56.39
2023-05-03T08:27:13.878Z,55.92
2023-05-03T08:30:02.049Z,55.13
2023-05-03T08:32:48.377Z,55.26
2023-05-03T08:35:35.439Z,54.94
2023-05-03T08:38:22.738Z,54.64
2023-05-03T08:41:26.393Z,55.64
2023-05-03T08:44:13.713Z,55.30
2023-05-03T08:47:01.466Z,54.41
2023-05-03T08:49:48.960Z,53.82
2023-05-03T08:52:38.156Z,53.78
2023-05-03T08:55:24.957Z,53.33
2023-05-03T08:58:13.121Z,52.76
2023-05-03T09:01:05.265Z,52.25
2023-05-03T09:03:53.097Z,52.15
2023-05-03T09:06:40.569Z,51.70
2023-05-03T09:09:34.576Z,51.94
2023-05-03T09:12:34.838Z,52.47
2023-05-03T09:15:22.743Z,52.55
2023-05-03T09:18:19.961Z,52.53
2023-05-03T09:21:11.792Z,52.38
2023-05-03T09:24:02.885Z,52.88
2023-05-03T09:26:51.963Z,53.04
2023-05-03T09:29:38.366Z,53.24
2023-05-03T09:32:25.359Z,52.47
2023-05-03T09:35:13.954Z,53.26
2023-05-03T09:38:01.830Z,52.87
2023-05-03T09:40:49.996Z,52.58
2023-05-03T09:43:49.816Z,51.82
2023-05-03T09:46:37.474Z,51.07
2023-05-03T09:49:24.882Z,51.14
2023-05-03T09:52:12.503Z,51.46
2023-05-03T09:54:59.354Z,51.89
2023-05-03T09:57:49.180Z,51.89
2023-05-03T10:00:40.543Z,52.13
2023-05-03T10:03:33.194Z,52.13
2023-05-03T10:06:32.120Z,52.24
2023-05-03T10:09:42.170Z,50.85
2023-05-03T10:12:29.085Z,51.70
2023-05-03T10:15:17.082Z,50.63
2023-05-03T10:18:06.718Z,50.80
2023-05-03T10:20:57.618Z,50.37
2023-05-03T10:24:16.596Z,49.79
2023-05-03T10:27:14.136Z,49.55
2023-05-03T10:30:05.611Z,50.37
2023-05-03T10:32:58.310Z,49.77
2023-05-03T10:35:56.057Z,49.85
2023-05-03T10:38:47.783Z,50.46
2023-05-03T10:41:37.945Z,50.51
2023-05-03T10:44:43.725Z,49.57
2023-05-03T10:47:38.701Z,51.01
2023-05-03T10:50:29.246Z,50.80
2023-05-03T10:53:36.276Z,51.03
2023-05-03T10:56:27.055Z,49.99
2023-05-03T10:59:20.565Z,51.00
2023-05-03T11:02:07.349Z,51.88
2023-05-03T11:05:01.087Z,50.36
2023-05-03T11:07:49.864Z,49.74
2023-05-03T11:10:36.949Z,49.98
2023-05-03T11:13:26.068Z,51.01
2023-05-03T11:16:16.191Z,50.87
2023-05-03T11:19:06.315Z,50.67
2023-05-03T11:21:55.255Z,50.77
2023-05-03T11:24:42.070Z,51.17
2023-05-03T11:27:30.239Z,51.35
2023-05-03T11:30:18.728Z,50.01
2023-05-03T11:33:10.306Z,49.85
2023-05-03T11:36:04.047Z,50.31
2023-05-03T11:38:52.294Z,50.12
2023-05-03T11:41:42.882Z,50.42
2023-05-03T11:44:32.723Z,50.75
2023-05-03T11:47:24.393Z,50.26
2023-05-03T11:50:13.594Z,49.67
2023-05-03T11:53:00.533Z,50.55
2023-05-03T11:55:49.883Z,50.71
2023-05-03T11:58:36.715Z,50.35
2023-05-03T12:01:29.177Z,50.38
2023-05-03T12:04:20.925Z,50.72
2023-05-03T12:07:19.548Z,50.50
2023-05-03T12:10:35.712Z,49.95
2023-05-03T12:13:40.700Z,50.24
2023-05-03T12:16:51.330Z,50.10
2023-05-03T12:19:48.532Z,49.52
2023-05-03T12:22:40.614Z,49.44
2023-05-03T12:25:34.082Z,49.24
2023-05-03T12:28:23.003Z,48.73
2023-05-03T12:36:49.185Z,48.66
2023-05-03T12:39:39.541Z,48.84
2023-05-03T12:42:29.045Z,48.91
2023-05-03T12:45:16.044Z,49.45
2023-05-03T12:48:03.822Z,49.04
2023-05-03T12:50:52.022Z,49.00
2023-05-03T12:53:39.372Z,48.56
2023-05-03T12:56:26.092Z,48.67
2023-05-03T13:04:58.807Z,48.48
2023-05-03T13:07:52.439Z,48.54
2023-05-03T13:10:44.156Z,49.38
2023-05-03T13:13:30.429Z,49.64
2023-05-03T13:16:17.443Z,49.13
2023-05-03T13:19:06.477Z,48.69
2023-05-03T13:21:53.406Z,49.02
2023-05-03T13:24:47.118Z,49.48
2023-05-03T13:27:36.763Z,49.32
2023-05-03T13:30:23.827Z,49.29
2023-05-03T13:33:12.657Z,49.33
2023-05-03T13:35:59.209Z,49.59
2023-05-03T13:38:46.300Z,49.73
2023-05-03T13:41:32.602Z,49.34
2023-05-03T13:44:19.720Z,48.95
2023-05-03T13:47:06.509Z,48.66
2023-05-03T13:49:57.735Z,48.95
2023-05-03T13:52:45.081Z,48.26
2023-05-03T13:55:32.163Z,49.25
2023-05-03T13:58:19.507Z,49.31
2023-05-03T14:01:06.871Z,48.47
2023-05-03T14:03:58.412Z,47.85
2023-05-03T14:06:47.155Z,47.93
2023-05-03T14:09:39.733Z,47.64
2023-05-03T14:12:27.754Z,48.70
2023-05-03T14:15:15.384Z,47.25
2023-05-03T14:18:04.936Z,47.55
2023-05-03T14:20:52.563Z,47.19
2023-05-03T14:23:40.546Z,47.52
2023-05-03T14:26:29.558Z,47.83
2023-05-03T14:29:16.890Z,48.57
2023-05-03T14:32:04.104Z,48.29
2023-05-03T14:34:50.695Z,48.63
2023-05-03T14:37:37.287Z,47.66
2023-05-03T14:40:23.704Z,48.44
2023-05-03T14:43:09.952Z,48.07
2023-05-03T14:45:57.377Z,48.32
2023-05-03T14:48:44.904Z,47.86
2023-05-03T14:51:32.397Z,47.87
2023-05-03T14:54:19.953Z,47.78
2023-05-03T14:57:05.826Z,47.63
2023-05-03T14:59:52.838Z,47.47
2023-05-03T15:02:39.109Z,47.09
2023-05-03T15:05:26.205Z,47.22
2023-05-03T15:08:17.638Z,47.21
2023-05-03T15:11:05.400Z,47.16
2023-05-03T15:13:53.045Z,46.93
2023-05-03T15:16:39.530Z,48.31
2023-05-03T15:19:26.933Z,47.25
2023-05-03T15:22:13.275Z,47.06
2023-05-03T15:24:59.832Z,46.95
2023-05-03T15:27:46.787Z,47.31
2023-05-03T15:30:34.503Z,47.55
2023-05-03T15:33:20.963Z,47.24
2023-05-03T15:36:08.722Z,47.15
2023-05-03T15:38:55.900Z,47.29
2023-05-03T15:41:42.847Z,47.48
2023-05-03T15:44:29.017Z,47.62
2023-05-03T15:47:15.855Z,47.77
2023-05-03T15:50:03.259Z,47.92
2023-05-03T15:52:50.401Z,47.96
2023-05-03T15:55:37.071Z,48.04
2023-05-03T15:58:25.564Z,47.94
2023-05-03T16:01:12.349Z,47.71
2023-05-03T16:03:59.817Z,47.44
2023-05-03T16:06:46.832Z,47.42
2023-05-03T16:09:34.339Z,47.00
2023-05-03T16:12:20.427Z,47.18
2023-05-03T16:15:08.709Z,46.70
2023-05-03T16:17:56.177Z,46.64
2023-05-03T16:20:43.409Z,46.59
2023-05-03T16:23:29.971Z,46.38
2023-05-03T16:26:19.525Z,46.55
2023-05-03T16:29:07.173Z,47.75
2023-05-03T16:31:55.322Z,48.38
2023-05-03T16:34:41.710Z,48.37
2023-05-03T16:37:31.019Z,47.84
2023-05-03T16:40:17.545Z,47.64
2023-05-03T16:43:10.470Z,48.16
2023-05-03T16:46:00.795Z,49.02
2023-05-03T16:48:48.213Z,48.09
2023-05-03T16:51:34.714Z,49.24
2023-05-03T16:54:21.307Z,48.40
2023-05-03T16:57:10.696Z,49.52
2023-05-03T17:00:04.917Z,48.91
2023-05-03T17:03:01.899Z,48.35
2023-05-03T17:05:57.145Z,48.66
2023-05-03T17:08:50.765Z,49.39
2023-05-03T17:11:51.213Z,49.16
2023-05-03T17:14:41.989Z,48.13
2023-05-03T17:17:34.407Z,48.05
2023-05-03T17:20:23.617Z,48.14
2023-05-03T17:23:16.490Z,48.13
2023-05-03T17:26:17.133Z,48.59
2023-05-03T17:29:08.608Z,48.45
2023-05-03T17:32:02.270Z,48.20
2023-05-03T17:34:56.868Z,48.70
2023-05-03T17:37:47.235Z,47.92
2023-05-03T17:40:47.775Z,51.09
2023-05-03T17:43:40.324Z,50.84
2023-05-03T17:46:37.120Z,51.75
2023-05-03T17:49:27.203Z,51.56
2023-05-03T17:52:20.247Z,51.98
2023-05-03T17:55:16.174Z,52.26
2023-05-03T17:58:12.096Z,52.74
2023-05-03T18:01:01.863Z,52.97
2023-05-03T18:03:49.864Z,53.24
2023-05-03T18:06:39.322Z,53.56
2023-05-03T18:13:10.323Z,54.13
2023-05-03T18:15:58.071Z,54.46
2023-05-03T18:18:51.148Z,54.63
2023-05-03T18:21:45.685Z,54.94
2023-05-03T18:24:43.822Z,55.05
2023-05-03T18:27:37.169Z,55.28
2023-05-03T18:30:29.517Z,55.51
2023-05-03T18:33:19.289Z,55.49
2023-05-03T18:36:12.294Z,55.71
2023-05-03T18:39:05.267Z,56.14
2023-05-03T18:42:03.168Z,56.98
2023-05-03T18:44:58.238Z,56.84
2023-05-03T18:47:52.261Z,56.91
2023-05-03T18:50:46.179Z,57.13
2023-05-03T18:53:37.218Z,57.69
2023-05-03T18:56:31.416Z,57.87
2023-05-03T18:59:21.022Z,58.28
2023-05-03T19:02:14.798Z,58.67
2023-05-03T19:05:04.744Z,58.95
2023-05-03T19:07:54.913Z,59.42
2023-05-03T19:10:42.522Z,59.37
2023-05-03T19:13:32.595Z,59.83
2023-05-03T19:16:23.383Z,60.01
2023-05-03T19:19:13.731Z,60.30
2023-05-03T19:22:02.804Z,60.78
2023-05-03T19:25:37.842Z,60.80
2023-05-03T19:28:43.728Z,61.12
2023-05-03T19:31:42.331Z,61.57
2023-05-03T19:34:52.879Z,61.65
2023-05-03T19:37:46.573Z,61.99
2023-05-03T19:40:58.559Z,62.19
2023-05-03T19:43:55.992Z,62.29
2023-05-03T19:47:26.129Z,61.69
2023-05-03T19:50:21.954Z,62.45
2023-05-03T19:53:28.143Z,62.76
2023-05-03T19:56:33.528Z,63.18
2023-05-03T19:59:26.322Z,63.09
2023-05-03T20:02:17.260Z,63.15
2023-05-03T20:05:05.730Z,63.35
2023-05-03T20:07:57.371Z,63.54
2023-05-03T20:10:46.315Z,63.88
2023-05-03T20:13:34.034Z,63.61
2023-05-03T20:16:21.813Z,64.04
2023-05-03T20:19:14.767Z,64.24
2023-05-03T20:22:01.218Z,64.14
2023-05-03T20:24:49.227Z,64.22
2023-05-03T20:27:36.402Z,64.55
2023-05-03T20:30:25.485Z,64.54
2023-05-03T20:33:11.626Z,64.65
2023-05-03T20:35:58.088Z,64.85
2023-05-03T20:38:46.319Z,64.76
2023-05-03T20:41:38.214Z,64.76
2023-05-03T20:44:26.089Z,65.13
2023-05-03T20:47:13.243Z,65.35
2023-05-03T20:50:00.069Z,65.29
2023-05-03T20:52:48.383Z,65.23
2023-05-03T20:55:35.546Z,65.47
2023-05-03T20:58:23.491Z,65.39
2023-05-03T21:01:10.329Z,65.36
2023-05-03T21:03:58.062Z,65.38
2023-05-03T21:06:45.450Z,65.39
2023-05-03T21:09:35.892Z,65.46
2023-05-03T21:12:24.250Z,65.43
2023-05-03T21:15:14.456Z,65.36
2023-05-03T21:18:10.037Z,65.25
2023-05-03T21:20:58.286Z,65.24
2023-05-03T21:23:48.153Z,65.61
2023-05-03T21:26:35.935Z,64.68
2023-05-03T21:29:22.429Z,65.04
2023-05-03T21:32:09.439Z,65.62
2023-05-03T21:34:56.213Z,66.29
2023-05-03T21:37:46.937Z,66.13
2023-05-03T21:40:39.861Z,66.31
2023-05-03T21:43:27.825Z,66.48
2023-05-03T21:46:16.086Z,66.46
2023-05-03T21:49:06.900Z,66.17
2023-05-03T21:51:54.136Z,66.36
2023-05-03T21:54:41.989Z,66.57
2023-05-03T21:57:28.366Z,66.25
2023-05-03T22:00:21.012Z,66.29
2023-05-03T22:03:09.348Z,66.45
2023-05-03T22:05:56.853Z,66.56
2023-05-03T22:08:45.476Z,66.12
2023-05-03T22:11:34.853Z,66.21
2023-05-03T22:14:22.077Z,66.25
2023-05-03T22:17:09.105Z,66.01
2023-05-03T22:19:58.639Z,66.33
2023-05-03T22:22:45.970Z,65.59
2023-05-03T22:25:32.751Z,66.46
2023-05-03T22:28:23.487Z,66.51
2023-05-03T22:31:11.061Z,66.92
2023-05-03T22:33:59.772Z,67.17
2023-05-03T22:36:49.965Z,66.83
2023-05-03T22:39:45.621Z,66.74
2023-05-03T22:42:33.392Z,66.81
2023-05-03T22:45:23.233Z,66.82
2023-05-03T22:48:10.381Z,66.75
2023-05-03T22:51:00.824Z,66.85
2023-05-03T22:53:47.776Z,66.82
2023-05-03T22:56:36.618Z,66.76
2023-05-03T22:59:26.374Z,66.72
2023-05-03T23:02:15.436Z,66.61
2023-05-03T23:05:02.466Z,66.52
2023-05-03T23:07:56.757Z,66.57
2023-05-03T23:10:52.201Z,66.59
2023-05-03T23:13:42.304Z,66.26
2023-05-03T23:16:28.950Z,66.73
2023-05-03T23:19:20.995Z,66.81
2023-05-03T23:22:07.612Z,66.63
2023-05-03T23:25:09.057Z,66.85
2023-05-03T23:27:58.420Z,66.89
2023-05-03T23:30:51.523Z,66.78
2023-05-03T23:33:46.263Z,67.11
2023-05-03T23:36:35.223Z,67.13
2023-05-03T23:39:28.237Z,67.24
2023-05-03T23:42:15.972Z,67.29
2023-05-03T23:45:04.738Z,67.38
2023-05-03T23:47:53.606Z,67.51
2023-05-03T23:50:39.844Z,67.47
2023-05-03T23:53:26.699Z,67.62
2023-05-03T23:56:14.006Z,67.46
2023-05-03T23:59:04.018Z,67.51
